Time;durP1;ratioP1;P1;durP2;ratioP2;P2;SDS_P1;SDS_P2;PMS_P1;PMS_P2;Temp;Humidity;BMP_temperature;BMP_pressure;BME280_temperature;BME280_humidity;BME280_pressure;Samples;Min_cycle;Max_cycle;Signal;HPM_P1;HPM_P2
2022/09/10 00:01:01;;;;;;;6.15;4.40;;;;;;;11.77;100.00;99583.45;1724897;82;21058;-72
2022/09/10 00:03:28;;;;;;;5.58;4.33;;;;;;;11.77;100.00;99586.52;1724936;82;21047;-72
2022/09/10 00:05:54;;;;;;;5.75;4.12;;;;;;;11.76;100.00;99580.88;1724822;82;21011;-72
2022/09/10 00:08:21;;;;;;;6.67;5.22;;;;;;;11.74;100.00;99577.89;1724866;83;21033;-72
2022/09/10 00:10:50;;;;;;;6.22;4.53;;;;;;;11.73;100.00;99581.41;1724801;83;21534;-72
2022/09/10 00:13:20;;;;;;;6.08;4.50;;;;;;;11.73;100.00;99579.25;1704204;83;20996;-72
2022/09/10 00:15:51;;;;;;;7.80;5.03;;;;;;;11.75;100.00;99581.34;1724934;82;20967;-72
2022/09/10 00:18:20;;;;;;;6.00;5.03;;;;;;;11.74;100.00;99577.04;1725111;83;21423;-72
2022/09/10 00:20:50;;;;;;;6.20;5.20;;;;;;;11.76;100.00;99575.25;1724871;82;21127;-72
2022/09/10 00:23:19;;;;;;;7.45;5.78;;;;;;;11.79;100.00;99574.27;1725133;82;21515;-72
2022/09/10 00:25:47;;;;;;;6.12;4.85;;;;;;;11.82;100.00;99571.50;1724853;82;21019;-72
2022/09/10 00:28:14;;;;;;;7.25;4.80;;;;;;;11.83;100.00;99566.67;1724825;82;21074;-73
2022/09/10 00:30:44;;;;;;;6.40;4.92;;;;;;;11.85;100.00;99570.91;1724896;82;20960;-73
2022/09/10 00:33:12;;;;;;;6.47;5.87;;;;;;;11.87;100.00;99574.75;1728473;82;21157;-72
2022/09/10 00:35:39;;;;;;;5.80;5.20;;;;;;;11.87;100.00;99568.23;1724779;83;20991;-72
2022/09/10 00:38:06;;;;;;;6.05;5.05;;;;;;;11.89;100.00;99565.11;1724820;83;21002;-72
2022/09/10 00:40:34;;;;;;;5.53;5.00;;;;;;;11.91;100.00;99570.64;1724878;83;21087;-72
2022/09/10 00:43:00;;;;;;;6.65;5.55;;;;;;;11.92;100.00;99562.37;1724909;83;20959;-72
2022/09/10 00:45:32;;;;;;;6.60;5.65;;;;;;;11.93;100.00;99564.91;1724763;83;21110;-72
2022/09/10 00:48:07;;;;;;;5.90;5.30;;;;;;;11.94;100.00;99560.54;1724876;83;20944;-72
2022/09/10 00:50:35;;;;;;;5.95;5.42;;;;;;;11.94;100.00;99559.23;1724831;83;21038;-72
2022/09/10 00:53:06;;;;;;;5.87;5.28;;;;;;;11.95;100.00;99557.87;1704218;83;21118;-72
2022/09/10 00:55:34;;;;;;;6.12;5.53;;;;;;;11.95;100.00;99557.87;1724942;82;21521;-72
2022/09/10 00:58:03;;;;;;;6.35;5.72;;;;;;;11.95;100.00;99552.66;1724812;82;21754;-72
2022/09/10 01:00:30;;;;;;;7.15;5.50;;;;;;;11.97;100.00;99558.64;1724755;83;20932;-72
2022/09/10 01:02:58;;;;;;;7.33;5.20;;;;;;;11.99;100.00;99554.67;1724793;82;20995;-72
2022/09/10 01:05:25;;;;;;;6.08;5.47;;;;;;;11.98;100.00;99549.06;1724726;83;20999;-72
2022/09/10 01:07:55;;;;;;;7.78;6.40;;;;;;;11.96;100.00;99543.92;1724976;82;21058;-72
2022/09/10 01:10:28;;;;;;;6.72;5.30;;;;;;;11.96;100.00;99543.92;1724884;83;21848;-72
2022/09/10 01:13:34;;;;;;;10.05;5.80;;;;;;;11.97;100.00;99540.86;1724886;82;20999;-72
2022/09/10 01:16:28;;;;;;;7.35;6.22;;;;;;;11.98;100.00;99538.64;1724675;83;21097;-72
2022/09/10 01:19:23;;;;;;;7.45;6.40;;;;;;;11.95;100.00;99537.02;1725254;83;20991;-71
2022/09/10 01:22:04;;;;;;;7.22;5.92;;;;;;;11.95;100.00;99540.08;1724539;83;20983;-72
2022/09/10 01:24:48;;;;;;;6.28;5.45;;;;;;;11.94;100.00;99531.88;1725050;83;21108;-72
2022/09/10 01:27:51;;;;;;;9.25;6.67;;;;;;;11.94;100.00;99537.93;1724265;83;21002;-73
2022/09/10 01:30:28;;;;;;;9.08;6.10;;;;;;;11.94;100.00;99526.66;1724867;82;21000;-72
2022/09/10 01:33:06;;;;;;;6.78;6.08;;;;;;;11.95;100.00;99528.34;1724924;83;21039;-72
2022/09/10 01:35:45;;;;;;;7.33;6.00;;;;;;;11.95;100.00;99523.13;1724834;82;21483;-72
2022/09/10 01:38:17;;;;;;;8.58;6.83;;;;;;;11.96;100.00;99533.95;1724814;82;21129;-72
2022/09/10 01:40:43;;;;;;;6.97;6.28;;;;;;;11.96;100.00;99528.73;1724664;82;21034;-72
2022/09/10 01:43:11;;;;;;;8.83;6.40;;;;;;;11.97;100.00;99525.22;1704631;83;21043;-72
2022/09/10 01:46:00;;;;;;;6.17;5.58;;;;;;;11.96;100.00;99524.83;1724701;83;21003;-72
2022/09/10 01:48:48;;;;;;;5.90;5.30;;;;;;;11.94;100.00;99520.98;1724840;83;21046;-72
2022/09/10 01:51:57;;;;;;;7.47;6.05;;;;;;;11.94;100.00;99518.38;1654920;83;21818;-72
2022/09/10 01:55:08;;;;;;;8.20;6.65;;;;;;;11.95;100.00;99515.31;1721594;83;21083;-71
2022/09/10 01:58:18;;;;;;;9.78;6.05;;;;;;;11.94;100.00;99513.17;1724727;83;20999;-73
2022/09/10 02:00:53;;;;;;;6.65;6.05;;;;;;;11.97;100.00;99520.00;1724579;83;21506;-73
2022/09/10 02:03:21;;;;;;;7.62;6.92;;;;;;;11.98;100.00;99509.51;1724958;83;21541;-73
2022/09/10 02:05:49;;;;;;;8.83;5.83;;;;;;;12.00;100.00;99509.41;1724796;83;21176;-73
2022/09/10 02:08:26;;;;;;;7.03;5.85;;;;;;;12.00;100.00;99498.98;1724931;82;21487;-73
2022/09/10 02:10:58;;;;;;;11.68;6.10;;;;;;;12.00;100.00;99491.16;1724949;83;21019;-73
2022/09/10 02:13:29;;;;;;;7.07;5.97;;;;;;;11.98;100.00;99492.56;1725184;83;21008;-73
2022/09/10 02:15:58;;;;;;;6.95;6.17;;;;;;;11.96;100.00;99493.55;1714198;83;20971;-73
2022/09/10 02:18:27;;;;;;;7.08;6.40;;;;;;;11.95;100.00;99494.47;1724731;83;21898;-73
2022/09/10 02:20:54;;;;;;;7.12;6.08;;;;;;;11.94;100.00;99487.11;1724904;83;21547;-73
2022/09/10 02:23:26;;;;;;;6.58;5.87;;;;;;;11.92;100.00;99481.57;1725123;83;21423;-73
2022/09/10 02:25:54;;;;;;;7.37;6.37;;;;;;;11.94;100.00;99492.31;1724934;83;21097;-73
2022/09/10 02:28:23;;;;;;;9.83;6.35;;;;;;;11.93;100.00;99490.63;1699732;83;21455;-73
2022/09/10 02:30:50;;;;;;;10.28;6.42;;;;;;;11.90;100.00;99484.25;1720211;83;21128;-73
2022/09/10 02:33:17;;;;;;;8.18;6.00;;;;;;;11.90;100.00;99484.70;1720261;83;20990;-73
2022/09/10 02:35:44;;;;;;;7.35;5.78;;;;;;;11.91;100.00;99485.94;1720246;82;21042;-73
2022/09/10 02:38:10;;;;;;;7.40;5.72;;;;;;;11.91;100.00;99491.16;1720305;82;21435;-73
2022/09/10 02:40:38;;;;;;;8.70;6.78;;;;;;;11.89;100.00;99487.77;1720261;82;21010;-73
2022/09/10 02:43:05;;;;;;;6.92;6.33;;;;;;;11.87;100.00;99484.84;1720240;82;21150;-73
2022/09/10 02:45:31;;;;;;;9.98;6.22;;;;;;;11.86;100.00;99489.66;1720149;83;20994;-73
2022/09/10 02:47:59;;;;;;;6.47;5.87;;;;;;;11.86;100.00;99488.36;1720172;83;21059;-73
2022/09/10 02:50:25;;;;;;;6.90;6.17;;;;;;;11.86;100.00;99483.15;1720199;83;21050;-72
2022/09/10 02:52:52;;;;;;;9.28;6.80;;;;;;;11.86;100.00;99486.60;1720389;82;20943;-72
2022/09/10 02:55:19;;;;;;;7.75;6.42;;;;;;;11.84;100.00;99485.83;1720231;82;21128;-72
2022/09/10 02:57:47;;;;;;;6.87;5.92;;;;;;;11.84;100.00;99484.52;1720142;83;21037;-72
2022/09/10 03:00:14;;;;;;;5.95;5.35;;;;;;;11.86;100.00;99487.06;1720272;83;21046;-72
2022/09/10 03:02:40;;;;;;;7.40;6.08;;;;;;;11.87;100.00;99487.45;1720286;82;21010;-72
2022/09/10 03:05:08;;;;;;;6.20;5.45;;;;;;;11.87;100.00;99480.93;1720543;82;20998;-72
2022/09/10 03:07:35;;;;;;;5.75;5.20;;;;;;;11.87;100.00;99487.45;1720287;83;21697;-73
2022/09/10 03:10:01;;;;;;;8.13;5.62;;;;;;;11.86;100.00;99482.69;1699705;83;20985;-72
2022/09/10 03:12:28;;;;;;;7.17;5.65;;;;;;;11.86;100.00;99480.55;1720190;83;21041;-72
2022/09/10 03:14:56;;;;;;;7.50;5.65;;;;;;;11.86;100.00;99477.48;1720209;83;20978;-72
2022/09/10 03:17:24;;;;;;;7.20;5.83;;;;;;;11.87;100.00;99469.20;1720207;83;21030;-73
2022/09/10 03:19:51;;;;;;;13.95;5.70;;;;;;;11.87;100.00;99468.75;1720209;83;21495;-73
2022/09/10 03:22:18;;;;;;;9.10;5.60;;;;;;;11.87;100.00;99470.51;1720198;82;20934;-72
2022/09/10 03:24:45;;;;;;;6.33;5.53;;;;;;;11.85;100.00;99471.88;1720223;83;21054;-72
2022/09/10 03:27:15;;;;;;;5.83;5.33;;;;;;;11.84;100.00;99471.95;1723800;83;21063;-72
2022/09/10 03:29:44;;;;;;;6.80;5.37;;;;;;;11.83;100.00;99471.56;1729502;82;20979;-72
2022/09/10 03:32:11;;;;;;;6.15;5.55;;;;;;;11.83;100.00;99472.86;1729524;83;21165;-72
2022/09/10 03:34:38;;;;;;;5.70;5.15;;;;;;;11.82;100.00;99478.53;1729505;83;21026;-72
2022/09/10 03:37:05;;;;;;;5.47;4.97;;;;;;;11.83;100.00;99481.52;1729525;82;20975;-72
2022/09/10 03:39:33;;;;;;;5.80;5.12;;;;;;;11.86;100.00;99474.03;1708720;83;20979;-72
2022/09/10 03:41:59;;;;;;;6.50;5.15;;;;;;;11.88;100.00;99473.50;1729603;82;20947;-72
2022/09/10 03:44:28;;;;;;;10.03;5.40;;;;;;;11.88;100.00;99471.73;1729620;82;20932;-72
2022/09/10 03:46:55;;;;;;;6.53;4.80;;;;;;;11.88;100.00;99477.41;1729435;82;20991;-72
2022/09/10 03:49:21;;;;;;;7.25;5.28;;;;;;;11.88;100.00;99470.90;1729526;83;20959;-72
2022/09/10 03:51:48;;;;;;;5.55;5.05;;;;;;;11.87;100.00;99466.59;1729484;82;21416;-72
2022/09/10 03:54:15;;;;;;;6.20;5.25;;;;;;;11.88;100.00;99467.83;1729500;83;21479;-72
2022/09/10 03:56:43;;;;;;;6.10;4.92;;;;;;;11.87;100.00;99468.75;1729497;82;21233;-72
2022/09/10 03:59:12;;;;;;;6.42;4.60;;;;;;;11.88;100.00;99470.90;1729514;82;20992;-72
2022/09/10 04:01:39;;;;;;;5.03;4.62;;;;;;;11.88;100.00;99464.38;1729795;82;20952;-72
2022/09/10 04:04:07;;;;;;;5.42;4.90;;;;;;;11.87;100.00;99459.63;1729489;82;21003;-72
2022/09/10 04:06:34;;;;;;;5.60;4.95;;;;;;;11.88;100.00;99468.29;1729538;82;21029;-72
2022/09/10 04:09:01;;;;;;;5.30;4.60;;;;;;;11.89;100.00;99466.92;1729547;83;21192;-72
2022/09/10 04:11:28;;;;;;;5.65;4.20;;;;;;;11.92;100.00;99473.75;1729513;82;20999;-72
2022/09/10 04:13:56;;;;;;;6.47;4.83;;;;;;;11.92;100.00;99466.78;1729462;83;20990;-72
2022/09/10 04:16:23;;;;;;;5.92;4.70;;;;;;;11.92;100.00;99464.62;1729553;83;21003;-72
2022/09/10 04:18:53;;;;;;;5.25;4.75;;;;;;;11.91;100.00;99461.64;1729599;82;20979;-72
2022/09/10 04:21:19;;;;;;;5.05;4.55;;;;;;;11.91;100.00;99465.55;1729437;82;21117;-72
2022/09/10 04:23:48;;;;;;;5.25;4.75;;;;;;;11.90;100.00;99460.79;1729496;83;21416;-72
2022/09/10 04:26:16;;;;;;;5.45;4.15;;;;;;;11.91;100.00;99464.24;1729465;83;21105;-72
2022/09/10 04:28:45;;;;;;;5.28;4.78;;;;;;;11.91;100.00;99472.06;1729528;82;21007;-71
2022/09/10 04:31:12;;;;;;;6.85;5.17;;;;;;;11.93;100.00;99460.65;1729478;83;20960;-71
2022/09/10 04:33:39;;;;;;;6.97;4.85;;;;;;;11.92;100.00;99469.39;1729450;82;21159;-70
2022/09/10 04:36:06;;;;;;;4.90;4.47;;;;;;;11.93;100.00;99465.02;1729473;82;20931;-70
2022/09/10 04:38:38;;;;;;;5.33;4.25;;;;;;;11.94;100.00;99459.73;1729315;83;20995;-70
2022/09/10 04:41:04;;;;;;;4.40;4.00;;;;;;;11.93;100.00;99457.20;1729345;82;21038;-70
2022/09/10 04:43:30;;;;;;;4.97;4.10;;;;;;;11.94;100.00;99454.98;1708836;83;21002;-71
2022/09/10 04:45:59;;;;;;;4.50;3.92;;;;;;;11.95;100.00;99460.13;1729471;83;21432;-71
2022/09/10 04:48:26;;;;;;;4.42;4.03;;;;;;;11.96;100.00;99452.69;1729326;82;21046;-70
2022/09/10 04:50:54;;;;;;;4.75;4.20;;;;;;;11.98;100.00;99451.32;1709407;83;21082;-71
2022/09/10 04:53:22;;;;;;;5.00;4.42;;;;;;;12.01;100.00;99449.84;1729453;83;21459;-71
2022/09/10 04:55:48;;;;;;;4.15;3.72;;;;;;;12.04;100.00;99449.70;1729463;83;20956;-72
2022/09/10 04:58:16;;;;;;;5.60;3.45;;;;;;;12.06;100.00;99450.48;1705132;83;21154;-72
2022/09/10 05:00:44;;;;;;;4.28;3.37;;;;;;;12.05;100.00;99452.23;1729338;83;21046;-71
2022/09/10 05:03:12;;;;;;;5.10;4.50;;;;;;;12.06;100.00;99453.93;1729517;83;20959;-70
2022/09/10 05:05:41;;;;;;;4.47;3.60;;;;;;;12.08;100.00;99452.09;1729515;83;21003;-71
2022/09/10 05:08:08;;;;;;;4.40;3.05;;;;;;;12.10;100.00;99449.88;1729486;82;21003;-71
2022/09/10 05:10:35;;;;;;;3.42;3.05;;;;;;;12.12;100.00;99453.26;1729450;83;21151;-71
2022/09/10 05:13:03;;;;;;;3.40;3.10;;;;;;;12.12;100.00;99463.69;1708644;83;20990;-71
2022/09/10 05:15:30;;;;;;;7.45;3.67;;;;;;;12.10;100.00;99460.30;1729403;82;21007;-71
2022/09/10 05:17:58;;;;;;;5.25;3.90;;;;;;;12.08;100.00;99457.31;1729435;83;21542;-71
2022/09/10 05:20:26;;;;;;;4.15;3.55;;;;;;;12.09;100.00;99462.06;1729743;83;20991;-70
2022/09/10 05:22:54;;;;;;;5.05;3.30;;;;;;;12.12;100.00;99462.38;1708735;83;21023;-71
2022/09/10 05:25:21;;;;;;;4.17;2.95;;;;;;;12.17;100.00;99468.23;1729442;83;20959;-69
2022/09/10 05:27:48;;;;;;;3.60;3.30;;;;;;;12.19;100.00;99467.20;1729427;82;21003;-69
2022/09/10 05:30:17;;;;;;;3.75;3.30;;;;;;;12.24;100.00;99467.00;1729607;82;21471;-70
2022/09/10 05:32:45;;;;;;;4.17;2.95;;;;;;;12.26;100.00;99465.16;1729769;83;21070;-70
2022/09/10 05:35:12;;;;;;;2.90;2.65;;;;;;;12.30;100.00;99471.92;1708991;83;21139;-70
2022/09/10 05:37:41;;;;;;;3.30;2.92;;;;;;;12.33;100.00;99470.02;1729979;83;21006;-70
2022/09/10 05:40:11;;;;;;;3.72;3.15;;;;;;;12.35;100.00;99470.80;1729760;83;20995;-71
2022/09/10 05:42:38;;;;;;;4.25;3.85;;;;;;;12.38;100.00;99461.98;1729683;83;20995;-70
2022/09/10 05:45:08;;;;;;;3.52;3.22;;;;;;;12.39;100.00;99468.85;1729734;83;21003;-72
2022/09/10 05:47:36;;;;;;;4.78;3.42;;;;;;;12.42;100.00;99470.02;1729826;82;21114;-72
2022/09/10 05:50:05;;;;;;;3.87;3.47;;;;;;;12.45;100.00;99462.50;1729601;83;21589;-72
2022/09/10 05:52:33;;;;;;;4.50;3.85;;;;;;;12.48;100.00;99470.18;1729698;83;20988;-72
2022/09/10 05:55:02;;;;;;;6.00;4.05;;;;;;;12.49;100.00;99460.98;1729539;82;21003;-73
2022/09/10 05:57:30;;;;;;;4.87;3.77;;;;;;;12.54;100.00;99460.76;1730072;83;20967;-73
2022/09/10 05:59:58;;;;;;;3.95;3.10;;;;;;;12.54;100.00;99466.82;1685184;83;41434;-73
2022/09/10 06:02:25;;;;;;;3.70;3.40;;;;;;;12.54;100.00;99464.21;1729610;82;21511;-73
2022/09/10 06:04:54;;;;;;;7.20;5.53;;;;;;;12.59;100.00;99470.52;1729668;82;21086;-73
2022/09/10 06:07:21;;;;;;;5.85;4.70;;;;;;;12.61;100.00;99468.19;1729589;83;21014;-73
2022/09/10 06:09:49;;;;;;;6.05;4.80;;;;;;;12.66;100.00;99470.11;1730173;83;20963;-73
2022/09/10 06:12:20;;;;;;;5.50;4.53;;;;;;;12.71;100.00;99463.37;1728828;82;21137;-73
2022/09/10 06:14:48;;;;;;;4.83;4.47;;;;;;;12.75;100.00;99459.69;1729668;83;21042;-73
2022/09/10 06:17:18;;;;;;;5.72;5.22;;;;;;;12.77;100.00;99463.06;1729651;82;21047;-73
2022/09/10 06:19:46;;;;;;;6.20;5.60;;;;;;;12.78;100.00;99467.37;1729690;83;21041;-73
2022/09/10 06:22:15;;;;;;;4.85;4.45;;;;;;;12.81;100.00;99464.58;1729729;82;21589;-71
2022/09/10 06:24:43;;;;;;;5.45;4.95;;;;;;;12.84;100.00;99467.50;1729049;82;21159;-71
2022/09/10 06:27:10;;;;;;;5.30;4.83;;;;;;;12.88;100.00;99464.66;1729610;82;20948;-72
2022/09/10 06:29:39;;;;;;;6.05;5.55;;;;;;;12.92;100.00;99466.66;1729572;82;21415;-72
2022/09/10 06:32:07;;;;;;;7.37;5.97;;;;;;;12.95;100.00;99466.51;1729657;83;21007;-71
2022/09/10 06:34:34;;;;;;;5.90;5.33;;;;;;;12.98;100.00;99458.06;1729627;83;21097;-71
2022/09/10 06:37:03;;;;;;;6.92;6.10;;;;;;;13.01;100.00;99456.57;1729729;82;21149;-73
2022/09/10 06:39:31;;;;;;;7.60;6.85;;;;;;;13.06;100.00;99458.49;1729579;82;20999;-73
2022/09/10 06:42:00;;;;;;;8.80;8.00;;;;;;;13.09;100.00;99458.34;1729622;82;21007;-73
2022/09/10 06:44:44;;;;;;;9.30;8.25;;;;;;;13.09;100.00;99461.41;1645835;87;20995;-73
2022/09/10 06:47:12;;;;;;;11.15;9.63;;;;;;;13.11;100.00;99466.09;1703120;82;21069;-73
2022/09/10 06:49:40;;;;;;;9.45;8.53;;;;;;;13.13;100.00;99469.47;1709553;83;21177;-73
2022/09/10 06:52:10;;;;;;;10.70;9.45;;;;;;;13.18;100.00;99462.75;1729692;82;20988;-73
2022/09/10 06:54:38;;;;;;;12.18;10.00;;;;;;;13.24;100.00;99465.02;1729797;83;21027;-73
2022/09/10 06:57:12;;;;;;;10.82;9.73;;;;;;;13.27;100.00;99460.48;1728741;82;21492;-73
2022/09/10 06:59:40;;;;;;;12.00;10.28;;;;;;;13.31;100.00;99458.55;1729822;82;21475;-73
2022/09/10 07:02:07;;;;;;;16.00;11.28;;;;;;;13.35;100.00;99467.46;1730115;82;21221;-75
2022/09/10 07:04:35;;;;;;;14.13;12.30;;;;;;;13.36;100.00;99463.92;1729742;82;21023;-73
2022/09/10 07:07:03;;;;;;;13.15;11.85;;;;;;;13.37;100.00;99471.30;1729984;82;21396;-73
2022/09/10 07:09:30;;;;;;;14.68;11.78;;;;;;;13.37;100.00;99469.53;1729800;82;20995;-73
2022/09/10 07:11:59;;;;;;;13.70;10.88;;;;;;;13.37;100.00;99470.00;1729755;82;20956;-72
2022/09/10 07:14:29;;;;;;;14.10;12.33;;;;;;;13.38;100.00;99465.16;1729881;82;21917;-72
2022/09/10 07:16:57;;;;;;;15.08;12.58;;;;;;;13.40;100.00;99471.95;1729771;82;21530;-72
2022/09/10 07:19:25;;;;;;;13.88;11.90;;;;;;;13.41;100.00;99468.42;1729819;82;20991;-73
2022/09/10 07:21:52;;;;;;;12.55;11.15;;;;;;;13.44;100.00;99472.19;1709013;83;20964;-74
2022/09/10 07:24:20;;;;;;;14.07;12.58;;;;;;;13.47;100.00;99463.80;1730125;83;21506;-73
2022/09/10 07:27:00;;;;;;;15.03;13.43;;;;;;;13.52;100.00;99461.34;1673585;82;21195;-71
2022/09/10 07:29:29;;;;;;;17.37;13.93;;;;;;;13.55;100.00;99461.17;1729413;82;20991;-73
2022/09/10 07:31:57;;;;;;;14.18;12.63;;;;;;;13.61;100.00;99461.28;1729547;82;21051;-74
2022/09/10 07:34:24;;;;;;;14.15;11.50;;;;;;;13.70;100.00;99459.03;1729478;82;20963;-73
2022/09/10 07:36:51;;;;;;;14.03;11.22;;;;;;;13.80;100.00;99460.66;1729855;83;20952;-73
2022/09/10 07:39:19;;;;;;;14.85;12.63;;;;;;;13.88;100.00;99470.25;1729484;83;21102;-72
2022/09/10 07:41:45;;;;;;;14.87;12.85;;;;;;;13.93;100.00;99463.47;1729488;83;20992;-73
2022/09/10 07:44:13;;;;;;;13.28;11.50;;;;;;;13.94;100.00;99456.01;1729402;83;20987;-73
2022/09/10 07:46:42;;;;;;;13.45;11.85;;;;;;;13.96;100.00;99465.92;1729705;82;20944;-73
2022/09/10 07:49:11;;;;;;;13.68;12.15;;;;;;;13.98;100.00;99465.38;1729492;82;20952;-72
2022/09/10 07:51:40;;;;;;;15.28;12.63;;;;;;;14.03;100.00;99464.63;1729525;83;21408;-72
2022/09/10 07:54:08;;;;;;;12.85;11.55;;;;;;;14.13;100.00;99463.20;1729748;82;21396;-72
2022/09/10 07:56:39;;;;;;;13.15;11.05;;;;;;;14.25;100.00;99448.58;1729265;82;20955;-72
2022/09/10 07:59:07;;;;;;;13.62;11.50;;;;;;;14.39;100.00;99445.55;1729450;83;20986;-72
2022/09/10 08:01:36;;;;;;;15.48;11.90;;;;;;;14.71;100.00;99448.12;1728889;82;21480;-72
2022/09/10 08:04:04;;;;;;;15.72;12.13;;;;;;;14.71;100.00;99448.12;1729409;82;21091;-72
2022/09/10 08:06:32;;;;;;;14.78;11.88;;;;;;;14.82;100.00;99448.31;1729399;82;21447;-72
2022/09/10 08:08:59;;;;;;;12.95;11.05;;;;;;;14.86;100.00;99452.91;1729400;82;21431;-72
2022/09/10 08:11:29;;;;;;;15.30;11.78;;;;;;;14.85;100.00;99462.55;1729437;82;21486;-72
2022/09/10 08:13:57;;;;;;;15.80;12.37;;;;;;;14.85;100.00;99457.30;1729467;83;21023;-72
2022/09/10 08:16:27;;;;;;;13.15;11.80;;;;;;;14.85;100.00;99459.08;1729569;83;21303;-72
2022/09/10 08:18:56;;;;;;;14.13;12.60;;;;;;;14.86;100.00;99444.59;1729210;82;21059;-72
2022/09/10 08:21:24;;;;;;;13.78;12.25;;;;;;;14.88;100.00;99449.73;1729510;82;20960;-72
2022/09/10 08:23:53;;;;;;;11.53;10.35;;;;;;;14.91;100.00;99442.55;1729444;82;20959;-72
2022/09/10 08:26:22;;;;;;;14.07;12.53;;;;;;;14.97;100.00;99450.05;1729454;82;21007;-72
2022/09/10 08:28:52;;;;;;;13.43;12.10;;;;;;;15.02;100.00;99444.52;1727483;82;21797;-72
2022/09/10 08:31:19;;;;;;;14.25;12.68;;;;;;;15.04;100.00;99438.25;1724577;83;21031;-72
2022/09/10 08:33:50;;;;;;;12.80;11.50;;;;;;;14.99;100.00;99444.22;1724403;83;21507;-72
2022/09/10 08:36:17;;;;;;;13.20;10.23;;;;;;;14.99;100.00;99433.75;1724678;83;21043;-72
2022/09/10 08:38:45;;;;;;;13.88;12.18;;;;;;;14.99;100.00;99437.67;1724783;83;21059;-72
2022/09/10 08:41:48;;;;;;;14.28;12.68;;;;;;;14.98;100.00;99436.49;1724812;83;21120;-72
2022/09/10 08:44:30;;;;;;;13.48;12.18;;;;;;;15.00;100.00;99428.89;1724423;82;20983;-72
2022/09/10 08:47:20;;;;;;;15.83;12.78;;;;;;;15.07;100.00;99423.66;1723726;83;21006;-72
2022/09/10 08:49:52;;;;;;;16.50;12.60;;;;;;;15.14;100.00;99413.20;1724799;83;21003;-72
2022/09/10 08:52:43;;;;;;;12.45;11.25;;;;;;;15.25;100.00;99419.55;1725295;83;21061;-73
2022/09/10 08:55:23;;;;;;;12.82;11.63;;;;;;;15.28;100.00;99416.74;1724294;83;21806;-73
2022/09/10 08:58:10;;;;;;;12.20;11.00;;;;;;;15.34;100.00;99413.75;1724729;83;20956;-72
2022/09/10 09:00:40;;;;;;;12.78;11.40;;;;;;;15.39;100.00;99410.36;1724789;83;21038;-72
2022/09/10 09:03:26;;;;;;;13.00;11.00;;;;;;;15.43;100.00;99403.53;1724560;83;21499;-73
2022/09/10 09:06:02;;;;;;;13.50;11.63;;;;;;;15.51;100.00;99405.68;1724826;83;20999;-72
2022/09/10 09:08:40;;;;;;;13.95;10.98;;;;;;;15.62;100.00;99408.95;1724510;83;21190;-71
2022/09/10 09:11:32;;;;;;;14.38;10.90;;;;;;;15.74;100.00;99406.42;1722175;83;20951;-72
2022/09/10 09:14:34;;;;;;;13.43;9.90;;;;;;;15.80;100.00;99395.52;1724922;82;21007;-73
2022/09/10 09:17:07;;;;;;;11.50;9.95;;;;;;;15.86;100.00;99396.91;1724752;83;21011;-72
2022/09/10 09:20:14;;;;;;;11.18;9.45;;;;;;;15.90;100.00;99394.47;1725039;83;21047;-72
2022/09/10 09:23:05;;;;;;;11.28;9.73;;;;;;;15.93;100.00;99396.91;1724818;82;21624;-72
2022/09/10 09:25:48;;;;;;;10.72;9.65;;;;;;;15.94;100.00;99399.90;1724687;83;21496;-72
2022/09/10 09:28:23;;;;;;;10.28;9.23;;;;;;;15.91;100.00;99392.22;1724721;83;21526;-72
2022/09/10 09:30:49;;;;;;;9.15;8.33;;;;;;;15.90;100.00;99382.67;1723838;83;21380;-72
2022/09/10 09:33:21;;;;;;;10.23;9.28;;;;;;;15.88;100.00;99371.91;1725699;83;20991;-72
2022/09/10 09:36:02;;;;;;;11.63;10.53;;;;;;;15.80;100.00;99381.09;1724748;82;21133;-72
2022/09/10 09:38:39;;;;;;;11.73;10.60;;;;;;;15.77;100.00;99379.16;1724842;83;20979;-72
2022/09/10 09:41:33;;;;;;;11.50;10.35;;;;;;;15.75;100.00;99374.48;1724990;83;21108;-72
2022/09/10 09:44:21;;;;;;;10.53;9.50;;;;;;;15.72;100.00;99365.03;1724777;83;20967;-72
2022/09/10 09:46:48;;;;;;;10.03;8.98;;;;;;;15.71;100.00;99372.99;1660292;83;21468;-72
2022/09/10 09:49:15;;;;;;;10.85;9.85;;;;;;;15.69;100.00;99367.84;1724694;82;21084;-72
2022/09/10 09:51:44;;;;;;;10.75;9.78;;;;;;;15.66;100.00;99369.34;1724707;83;20948;-72
2022/09/10 09:54:18;;;;;;;11.22;10.13;;;;;;;15.63;100.00;99362.98;1724754;83;21440;-72
2022/09/10 09:56:48;;;;;;;10.43;9.45;;;;;;;15.64;100.00;99361.20;1724808;83;21023;-73
2022/09/10 09:59:30;;;;;;;12.73;11.48;;;;;;;15.67;100.00;99363.16;1724797;83;21065;-73
2022/09/10 10:02:17;;;;;;;11.55;10.45;;;;;;;15.70;100.00;99352.48;1724782;83;21234;-72
2022/09/10 10:05:06;;;;;;;11.68;10.60;;;;;;;15.71;100.00;99363.81;1724719;83;20999;-72
2022/09/10 10:07:35;;;;;;;10.35;9.45;;;;;;;15.72;100.00;99362.88;1724764;83;20979;-72
2022/09/10 10:10:04;;;;;;;11.48;10.30;;;;;;;15.67;100.00;99360.54;1724820;82;20963;-72
2022/09/10 10:12:31;;;;;;;11.25;10.05;;;;;;;15.65;100.00;99358.95;1704277;83;21456;-71
2022/09/10 10:14:59;;;;;;;10.90;9.80;;;;;;;15.65;100.00;99364.20;1724901;83;21321;-74
2022/09/10 10:17:31;;;;;;;11.25;10.15;;;;;;;15.66;100.00;99355.39;1724652;82;20970;-74
2022/09/10 10:20:02;;;;;;;10.85;9.85;;;;;;;15.68;100.00;99351.73;1724844;83;21447;-74
2022/09/10 10:22:30;;;;;;;11.28;10.15;;;;;;;15.72;100.00;99342.74;1724773;83;21080;-72
2022/09/10 10:25:00;;;;;;;10.38;9.33;;;;;;;15.78;100.00;99345.45;1724736;83;21066;-73
2022/09/10 10:27:35;;;;;;;10.08;9.18;;;;;;;15.81;100.00;99340.81;1725119;83;21176;-73
2022/09/10 10:30:22;;;;;;;10.55;9.55;;;;;;;15.83;100.00;99332.38;1724744;83;20947;-73
2022/09/10 10:32:57;;;;;;;9.63;8.50;;;;;;;15.84;100.00;99330.60;1724883;82;21051;-73
2022/09/10 10:35:40;;;;;;;10.63;9.08;;;;;;;15.84;100.00;99338.47;1724960;82;20960;-73
2022/09/10 10:38:21;;;;;;;11.60;9.20;;;;;;;15.83;100.00;99327.61;1725143;82;21031;-72
2022/09/10 10:41:10;;;;;;;10.10;9.15;;;;;;;15.82;100.00;99333.33;1724730;83;21630;-72
2022/09/10 10:44:17;;;;;;;9.90;9.00;;;;;;;15.84;100.00;99334.54;1724799;83;21059;-72
2022/09/10 10:47:12;;;;;;;10.28;9.23;;;;;;;15.93;100.00;99335.27;1725039;82;21086;-72
2022/09/10 10:50:13;;;;;;;9.43;8.53;;;;;;;15.97;100.00;99331.50;1725147;83;21047;-72
2022/09/10 10:53:06;;;;;;;10.38;9.38;;;;;;;15.99;100.00;99332.69;1709621;83;20995;-72
2022/09/10 10:55:40;;;;;;;9.73;8.58;;;;;;;16.01;100.00;99325.09;1725022;83;21340;-73
2022/09/10 10:58:31;;;;;;;9.18;8.28;;;;;;;16.04;100.00;99324.89;1717893;83;21507;-73
2022/09/10 11:01:08;;;;;;;10.25;9.35;;;;;;;16.03;100.00;99323.20;1721953;83;20992;-73
2022/09/10 11:03:43;;;;;;;9.75;8.68;;;;;;;16.04;100.00;99318.80;1724456;83;21003;-73
2022/09/10 11:06:14;;;;;;;9.68;8.80;;;;;;;16.06;100.00;99317.77;1725128;83;20968;-72
2022/09/10 11:08:49;;;;;;;8.98;8.10;;;;;;;16.09;100.00;99315.41;1723695;83;21140;-72
2022/09/10 11:11:23;;;;;;;9.80;8.43;;;;;;;16.15;100.00;99305.36;1724975;82;21011;-72
2022/09/10 11:13:57;;;;;;;9.35;8.58;;;;;;;16.20;100.00;99289.28;1724846;82;20999;-72
2022/09/10 11:16:40;;;;;;;10.43;8.45;;;;;;;16.27;100.00;99304.99;1725044;83;20955;-72
2022/09/10 11:19:34;;;;;;;9.15;7.40;;;;;;;16.34;100.00;99298.40;1724976;82;21088;-72
2022/09/10 11:22:20;;;;;;;9.28;8.25;;;;;;;16.47;100.00;99295.30;1725004;82;21152;-72
2022/09/10 11:24:52;;;;;;;9.98;8.90;;;;;;;16.57;100.00;99294.21;1724802;83;21047;-72
2022/09/10 11:27:23;;;;;;;9.83;8.88;;;;;;;16.65;100.00;99295.84;1722876;83;21137;-73
2022/09/10 11:30:05;;;;;;;9.18;8.48;;;;;;;16.69;100.00;99296.48;1724858;82;21455;-74
2022/09/10 11:33:06;;;;;;;9.15;8.35;;;;;;;16.68;100.00;99293.02;1724991;83;20951;-72
2022/09/10 11:35:47;;;;;;;10.10;9.10;;;;;;;16.65;100.00;99291.07;1724870;83;21627;-71
2022/09/10 11:38:53;;;;;;;9.60;8.80;;;;;;;16.61;100.00;99282.53;1724783;82;20948;-71
2022/09/10 11:41:25;;;;;;;11.10;10.00;;;;;;;16.65;100.00;99281.41;1724976;83;20944;-72
2022/09/10 11:44:13;;;;;;;9.68;8.75;;;;;;;16.63;100.00;99272.79;1724996;83;20960;-71